createdAt,value
2023-06-20T00:00:45.541Z,2327.00
2023-06-20T00:01:44.993Z,2322.00
2023-06-20T00:02:45.087Z,2317.00
2023-06-20T00:03:45.124Z,2312.00
2023-06-20T00:04:45.165Z,2315.00
2023-06-20T00:05:45.244Z,2311.00
2023-06-20T00:06:45.260Z,2307.00
2023-06-20T00:07:45.315Z,2295.00
2023-06-20T00:08:45.381Z,2287.00
2023-06-20T00:09:45.409Z,2282.00
2023-06-20T00:10:45.480Z,2284.00
2023-06-20T00:11:45.570Z,2269.00
2023-06-20T00:12:45.566Z,2267.00
2023-06-20T00:13:45.665Z,2267.00
2023-06-20T00:14:45.702Z,2266.00
2023-06-20T00:15:45.736Z,2259.00
2023-06-20T00:16:45.802Z,2263.00
2023-06-20T00:17:45.870Z,2258.00
2023-06-20T00:18:46.045Z,2250.00
2023-06-20T00:19:45.951Z,2254.00
2023-06-20T00:20:46.014Z,2269.00
2023-06-20T00:21:46.061Z,2261.00
2023-06-20T00:22:46.114Z,2252.00
2023-06-20T00:23:46.180Z,2249.00
2023-06-20T00:24:46.308Z,2238.00
2023-06-20T00:25:46.285Z,2223.00
2023-06-20T00:26:46.348Z,2208.00
2023-06-20T00:27:46.409Z,2195.00
2023-06-20T00:28:46.455Z,2182.00
2023-06-20T00:29:46.536Z,2178.00
2023-06-20T00:30:46.571Z,2173.00
2023-06-20T00:31:46.624Z,2173.00
2023-06-20T00:32:46.720Z,2173.00
2023-06-20T00:33:46.776Z,2185.00
2023-06-20T00:34:46.834Z,2181.00
2023-06-20T00:35:46.856Z,2178.00
2023-06-20T00:36:46.904Z,2180.00
2023-06-20T00:37:46.961Z,2183.00
2023-06-20T00:38:47.032Z,2177.00
2023-06-20T00:39:47.105Z,2182.00
2023-06-20T00:40:47.127Z,2171.00
2023-06-20T00:41:47.179Z,2156.00
2023-06-20T00:42:47.250Z,2151.00
2023-06-20T00:43:47.335Z,2145.00
2023-06-20T00:44:47.358Z,2151.00
2023-06-20T00:45:47.492Z,2162.00
2023-06-20T00:46:47.553Z,2154.00
2023-06-20T00:47:47.592Z,2165.00
2023-06-20T00:48:47.642Z,2170.00
2023-06-20T00:49:47.671Z,2169.00
2023-06-20T00:50:47.733Z,2154.00
2023-06-20T00:51:47.786Z,2153.00
2023-06-20T00:52:47.859Z,2159.00
2023-06-20T00:53:47.919Z,2158.00
2023-06-20T00:54:47.946Z,2163.00
2023-06-20T00:55:48.027Z,2160.00
2023-06-20T00:56:48.046Z,2155.00
2023-06-20T00:57:48.098Z,2166.00
2023-06-20T00:58:48.191Z,2157.00
2023-06-20T00:59:48.216Z,2165.00
2023-06-20T01:00:48.286Z,2169.00
2023-06-20T01:01:48.411Z,2169.00
2023-06-20T01:02:48.561Z,2161.00
2023-06-20T01:03:48.743Z,2155.00
2023-06-20T01:04:48.544Z,2149.00
2023-06-20T01:05:48.610Z,2152.00
2023-06-20T01:06:48.674Z,2144.00
2023-06-20T01:07:48.706Z,2150.00
2023-06-20T01:08:48.791Z,2131.00
2023-06-20T01:09:48.854Z,2130.00
2023-06-20T01:10:48.927Z,2130.00
2023-06-20T01:11:48.943Z,2125.00
2023-06-20T01:12:49.001Z,2120.00
2023-06-20T01:13:49.097Z,2118.00
2023-06-20T01:14:49.163Z,2107.00
2023-06-20T01:15:49.237Z,2122.00
2023-06-20T01:16:49.263Z,2105.00
2023-06-20T01:17:49.385Z,2102.00
2023-06-20T01:18:49.459Z,2103.00
2023-06-20T01:19:49.505Z,2084.00
2023-06-20T01:20:49.524Z,2087.00
2023-06-20T01:21:49.597Z,2091.00
2023-06-20T01:22:49.633Z,2092.00
2023-06-20T01:23:49.705Z,2089.00
2023-06-20T01:24:49.786Z,2092.00
2023-06-20T01:25:49.855Z,2088.00
2023-06-20T01:26:49.910Z,2089.00
2023-06-20T01:27:49.986Z,2093.00
2023-06-20T01:28:50.022Z,2089.00
2023-06-20T01:29:50.103Z,2086.00
2023-06-20T01:30:50.153Z,2062.00
2023-06-20T01:31:50.210Z,2071.00
2023-06-20T01:32:50.336Z,2072.00
2023-06-20T01:33:50.372Z,2064.00
2023-06-20T01:34:50.372Z,2074.00
2023-06-20T01:35:50.423Z,2068.00
2023-06-20T01:36:50.494Z,2073.00
2023-06-20T01:37:50.539Z,2065.00
2023-06-20T01:38:50.591Z,2070.00
2023-06-20T01:39:50.636Z,2053.00
2023-06-20T01:40:50.699Z,2062.00
2023-06-20T01:41:50.755Z,2061.00
2023-06-20T01:42:50.811Z,2049.00
2023-06-20T01:43:50.864Z,2050.00
2023-06-20T01:44:50.917Z,2043.00
2023-06-20T01:45:50.936Z,2043.00
2023-06-20T01:46:51.050Z,2039.00
2023-06-20T01:47:51.085Z,2045.00
2023-06-20T01:48:51.162Z,2045.00
2023-06-20T01:49:51.173Z,2046.00
2023-06-20T01:50:51.219Z,2035.00
2023-06-20T01:51:51.291Z,2035.00
2023-06-20T01:52:51.357Z,2033.00
2023-06-20T01:53:51.353Z,2031.00
2023-06-20T01:54:51.394Z,2032.00
2023-06-20T01:55:51.497Z,2034.00
2023-06-20T01:56:51.513Z,2030.00
2023-06-20T01:57:51.525Z,2031.00
2023-06-20T01:58:51.584Z,2028.00
2023-06-20T01:59:51.723Z,2036.00
2023-06-20T02:00:51.691Z,2033.00
2023-06-20T02:01:51.752Z,2033.00
2023-06-20T02:02:51.857Z,2024.00
2023-06-20T02:03:51.945Z,2023.00
2023-06-20T02:04:51.906Z,2023.00
2023-06-20T02:05:51.928Z,2021.00
2023-06-20T02:06:51.960Z,2016.00
2023-06-20T02:07:52.021Z,2017.00
2023-06-20T02:08:52.114Z,2018.00
2023-06-20T02:09:52.121Z,2017.00
2023-06-20T02:10:52.164Z,2007.00
2023-06-20T02:11:52.159Z,2006.00
2023-06-20T02:12:52.218Z,2000.00
2023-06-20T02:13:52.268Z,2000.00
2023-06-20T02:14:52.308Z,1996.00
2023-06-20T02:15:52.363Z,2000.00
2023-06-20T02:16:52.459Z,2004.00
2023-06-20T02:17:52.522Z,2006.00
2023-06-20T02:18:52.534Z,2013.00
2023-06-20T02:19:52.617Z,2003.00
2023-06-20T02:20:53.621Z,1994.00
2023-06-20T02:21:52.694Z,1997.00
2023-06-20T02:22:52.759Z,1993.00
2023-06-20T02:23:52.803Z,1984.00
2023-06-20T02:24:52.857Z,1987.00
2023-06-20T02:25:52.874Z,1982.00
2023-06-20T02:26:52.943Z,1979.00
2023-06-20T02:27:52.969Z,1977.00
2023-06-20T02:28:53.003Z,1979.00
2023-06-20T02:29:53.113Z,1965.00
2023-06-20T02:30:53.116Z,1968.00
2023-06-20T02:31:53.138Z,1961.00
2023-06-20T02:32:53.242Z,1954.00
2023-06-20T02:33:53.212Z,1947.00
2023-06-20T02:34:53.248Z,1938.00
2023-06-20T02:35:53.260Z,1935.00
2023-06-20T02:36:53.305Z,1933.00
2023-06-20T02:37:53.326Z,1925.00
2023-06-20T02:38:53.376Z,1927.00
2023-06-20T02:39:53.395Z,1915.00
2023-06-20T02:40:53.419Z,1916.00
2023-06-20T02:41:53.488Z,1907.00
2023-06-20T02:42:53.499Z,1894.00
2023-06-20T02:43:53.559Z,1894.00
2023-06-20T02:44:53.574Z,1893.00
2023-06-20T02:45:53.651Z,1890.00
2023-06-20T02:46:53.566Z,1892.00
2023-06-20T02:47:53.574Z,1897.00
2023-06-20T02:48:53.564Z,1883.00
2023-06-20T02:49:53.573Z,1890.00
2023-06-20T02:50:53.638Z,1890.00
2023-06-20T02:51:53.678Z,1873.00
2023-06-20T02:52:53.711Z,1862.00
2023-06-20T02:53:53.717Z,1863.00
2023-06-20T02:54:53.730Z,1871.00
2023-06-20T02:55:53.744Z,1867.00
2023-06-20T02:56:53.733Z,1867.00
2023-06-20T02:57:53.771Z,1860.00
2023-06-20T02:58:53.784Z,1868.00
2023-06-20T02:59:53.774Z,1865.00
2023-06-20T03:00:53.936Z,1860.00
2023-06-20T03:01:53.850Z,1869.00
2023-06-20T03:02:53.874Z,1866.00
2023-06-20T03:03:53.827Z,1872.00
2023-06-20T03:04:53.793Z,1872.00
2023-06-20T03:05:53.798Z,1871.00
2023-06-20T03:06:53.822Z,1870.00
2023-06-20T03:07:53.813Z,1872.00
2023-06-20T03:08:53.831Z,1874.00
2023-06-20T03:09:53.798Z,1880.00
2023-06-20T03:10:53.824Z,1877.00
2023-06-20T03:11:53.797Z,1884.00
2023-06-20T03:12:53.811Z,1888.00
2023-06-20T03:13:53.835Z,1901.00
2023-06-20T03:14:53.864Z,1888.00
2023-06-20T03:15:53.906Z,1903.00
2023-06-20T03:16:53.888Z,1901.00
2023-06-20T03:17:53.951Z,1892.00
2023-06-20T03:18:53.917Z,1897.00
2023-06-20T03:19:53.926Z,1906.00
2023-06-20T03:20:53.954Z,1908.00
2023-06-20T03:21:53.946Z,1924.00
2023-06-20T03:22:53.946Z,1900.00
2023-06-20T03:23:53.919Z,1902.00
2023-06-20T03:24:53.957Z,1902.00
2023-06-20T03:25:53.916Z,1904.00
2023-06-20T03:26:53.936Z,1895.00
2023-06-20T03:27:53.943Z,1899.00
2023-06-20T03:28:53.943Z,1900.00
2023-06-20T03:29:53.942Z,1906.00
2023-06-20T03:30:53.969Z,1905.00
2023-06-20T03:31:53.929Z,1914.00
2023-06-20T03:32:53.959Z,1912.00
2023-06-20T03:33:53.925Z,1904.00
2023-06-20T03:34:53.882Z,1909.00
2023-06-20T03:35:53.879Z,1910.00
2023-06-20T03:36:53.900Z,1913.00
2023-06-20T03:37:53.869Z,1912.00
2023-06-20T03:38:53.861Z,1910.00
2023-06-20T03:39:53.859Z,1901.00
2023-06-20T03:40:53.868Z,1911.00
2023-06-20T03:41:53.887Z,1899.00
2023-06-20T03:42:53.864Z,1911.00
2023-06-20T03:43:53.876Z,1903.00
2023-06-20T03:44:53.868Z,1908.00
2023-06-20T03:45:53.872Z,1899.00
2023-06-20T03:46:53.979Z,1898.00
2023-06-20T03:47:53.923Z,1889.00
2023-06-20T03:48:53.869Z,1892.00
2023-06-20T03:49:53.890Z,1895.00
2023-06-20T03:50:53.841Z,1891.00
2023-06-20T03:51:53.862Z,1888.00
2023-06-20T03:52:53.842Z,1888.00
2023-06-20T03:53:53.892Z,1895.00
2023-06-20T03:54:53.851Z,1886.00
2023-06-20T03:55:53.845Z,1889.00
2023-06-20T03:56:53.924Z,1878.00
2023-06-20T03:57:53.861Z,1874.00
2023-06-20T03:58:53.887Z,1873.00
2023-06-20T03:59:53.872Z,1873.00
2023-06-20T04:00:53.866Z,1887.00
2023-06-20T04:01:53.797Z,1875.00
2023-06-20T04:02:53.847Z,1875.00
2023-06-20T04:03:53.984Z,1875.00
2023-06-20T04:04:53.864Z,1878.00
2023-06-20T04:05:53.872Z,1887.00
2023-06-20T04:06:53.798Z,1879.00
2023-06-20T04:07:53.880Z,1873.00
2023-06-20T04:08:53.793Z,1874.00
2023-06-20T04:09:53.810Z,1870.00
2023-06-20T04:10:53.785Z,1861.00
2023-06-20T04:11:53.793Z,1875.00
2023-06-20T04:12:53.776Z,1863.00
2023-06-20T04:13:53.785Z,1853.00
2023-06-20T04:14:53.800Z,1868.00
2023-06-20T04:15:53.777Z,1861.00
2023-06-20T04:16:53.788Z,1851.00
2023-06-20T04:17:53.845Z,1848.00
2023-06-20T04:18:53.791Z,1855.00
2023-06-20T04:19:53.795Z,1853.00
2023-06-20T04:20:53.777Z,1846.00
2023-06-20T04:21:53.795Z,1861.00
2023-06-20T04:22:53.807Z,1852.00
2023-06-20T04:23:53.767Z,1859.00
2023-06-20T04:24:53.802Z,1855.00
2023-06-20T04:25:53.778Z,1844.00
2023-06-20T04:26:53.764Z,1853.00
2023-06-20T04:27:53.786Z,1861.00
2023-06-20T04:28:53.776Z,1863.00
2023-06-20T04:29:53.772Z,1875.00
2023-06-20T04:30:53.772Z,1877.00
2023-06-20T04:31:53.804Z,1865.00
2023-06-20T04:32:53.827Z,1850.00
2023-06-20T04:33:53.811Z,1836.00
2023-06-20T04:34:53.882Z,1842.00
2023-06-20T04:35:53.800Z,1850.00
2023-06-20T04:36:53.807Z,1840.00
2023-06-20T04:37:53.819Z,1839.00
2023-06-20T04:38:53.845Z,1847.00
2023-06-20T04:39:53.864Z,1850.00
2023-06-20T04:40:53.820Z,1853.00
2023-06-20T04:41:53.833Z,1849.00
2023-06-20T04:42:53.833Z,1844.00
2023-06-20T04:43:53.881Z,1835.00
2023-06-20T04:44:53.894Z,1834.00
2023-06-20T04:45:53.914Z,1836.00
2023-06-20T04:46:53.874Z,1843.00
2023-06-20T04:47:54.102Z,1834.00
2023-06-20T04:48:53.930Z,1837.00
2023-06-20T04:49:54.203Z,1828.00
2023-06-20T04:50:53.911Z,1830.00
2023-06-20T04:51:53.981Z,1826.00
2023-06-20T04:52:53.961Z,1831.00
2023-06-20T04:53:54.025Z,1836.00
2023-06-20T04:54:54.188Z,1834.00
2023-06-20T04:55:54.012Z,1830.00
2023-06-20T04:56:53.999Z,1836.00
2023-06-20T04:57:54.048Z,1840.00
2023-06-20T04:58:54.015Z,1857.00
2023-06-20T04:59:54.169Z,1849.00
2023-06-20T05:00:54.058Z,1848.00
2023-06-20T05:01:54.067Z,1852.00
2023-06-20T05:02:54.061Z,1859.00
2023-06-20T05:03:54.186Z,1840.00
2023-06-20T05:04:54.061Z,1841.00
2023-06-20T05:05:54.073Z,1850.00
2023-06-20T05:06:54.075Z,1853.00
2023-06-20T05:07:54.080Z,1856.00
2023-06-20T05:08:54.096Z,1866.00
2023-06-20T05:09:54.100Z,1864.00
2023-06-20T05:10:54.082Z,1863.00
2023-06-20T05:11:54.121Z,1840.00
2023-06-20T05:12:54.104Z,1818.00
2023-06-20T05:13:54.108Z,1812.00
2023-06-20T05:14:54.115Z,1792.00
2023-06-20T05:15:54.180Z,1788.00
2023-06-20T05:16:54.157Z,1779.00
2023-06-20T05:17:54.351Z,1769.00
2023-06-20T05:18:54.249Z,1766.00
2023-06-20T05:19:54.301Z,1767.00
2023-06-20T05:20:54.379Z,1764.00
2023-06-20T05:21:54.429Z,1778.00
2023-06-20T05:22:54.564Z,1773.00
2023-06-20T05:23:54.672Z,1764.00
2023-06-20T05:24:54.630Z,1769.00
2023-06-20T05:25:54.631Z,1775.00
2023-06-20T05:26:54.751Z,1794.00
2023-06-20T05:27:54.707Z,1823.00
2023-06-20T05:28:54.712Z,1823.00
2023-06-20T05:29:54.826Z,1919.00
2023-06-20T05:30:54.798Z,1913.00
2023-06-20T05:31:55.149Z,1937.00
2023-06-20T05:32:55.191Z,1932.00
2023-06-20T05:33:54.982Z,1945.00
2023-06-20T05:34:55.213Z,1972.00
2023-06-20T05:35:55.108Z,1961.00
2023-06-20T05:36:55.129Z,1964.00
2023-06-20T05:37:55.189Z,1945.00
2023-06-20T05:38:55.233Z,1931.00
2023-06-20T05:39:57.147Z,1925.00
2023-06-20T05:40:55.328Z,1926.00
2023-06-20T05:41:55.291Z,1880.00
2023-06-20T05:42:55.264Z,1871.00
2023-06-20T05:43:55.276Z,1907.00
2023-06-20T05:44:55.278Z,1940.00
2023-06-20T05:45:55.263Z,2000.00
2023-06-20T05:46:55.322Z,2040.00
2023-06-20T05:47:55.267Z,2141.00
2023-06-20T05:48:55.248Z,2257.00
2023-06-20T05:49:55.668Z,2610.00
2023-06-20T05:50:55.230Z,2424.00
2023-06-20T05:51:55.229Z,2681.00
2023-06-20T05:52:55.245Z,2424.00
2023-06-20T05:53:55.216Z,2401.00
2023-06-20T05:54:55.203Z,2605.00
2023-06-20T05:55:55.185Z,2799.00
2023-06-20T05:56:55.177Z,2524.00
2023-06-20T05:57:55.185Z,2316.00
2023-06-20T05:58:55.173Z,2198.00
2023-06-20T05:59:55.181Z,2105.00
2023-06-20T06:00:55.172Z,2065.00
2023-06-20T06:01:58.071Z,2008.00
2023-06-20T06:02:55.324Z,1983.00
2023-06-20T06:03:55.168Z,2010.00
2023-06-20T06:04:55.241Z,2027.00
2023-06-20T06:05:55.148Z,2201.00
2023-06-20T06:06:55.116Z,2162.00
2023-06-20T06:07:55.120Z,2105.00
2023-06-20T06:08:55.123Z,2098.00
2023-06-20T06:09:55.089Z,2063.00
2023-06-20T06:10:55.101Z,2248.00
2023-06-20T06:11:55.115Z,2219.00
2023-06-20T06:12:55.086Z,2134.00
2023-06-20T06:13:55.073Z,2185.00
2023-06-20T06:14:55.181Z,2331.00
2023-06-20T06:16:00.604Z,2404.00
2023-06-20T06:16:56.213Z,2405.00
2023-06-20T06:17:55.092Z,2404.00
2023-06-20T06:18:55.034Z,2277.00
2023-06-20T06:19:55.048Z,2512.00
2023-06-20T06:20:55.022Z,2298.00
2023-06-20T06:21:55.015Z,2085.00
2023-06-20T06:22:55.018Z,1993.00
2023-06-20T06:23:55.064Z,1964.00
2023-06-20T06:24:54.999Z,1912.00
2023-06-20T06:25:54.998Z,1816.00
2023-06-20T06:26:55.016Z,1798.00
2023-06-20T06:27:56.508Z,1755.00
2023-06-20T06:28:54.968Z,1732.00
2023-06-20T06:29:54.976Z,1723.00
2023-06-20T06:30:55.126Z,1763.00
2023-06-20T06:31:54.964Z,1738.00
2023-06-20T06:32:55.263Z,1686.00
2023-06-20T06:33:54.929Z,1633.00
2023-06-20T06:34:54.951Z,1623.00
2023-06-20T06:35:54.948Z,1645.00
2023-06-20T06:36:54.917Z,1600.00
2023-06-20T06:37:55.056Z,1626.00
2023-06-20T06:38:54.937Z,1593.00
2023-06-20T06:39:54.918Z,1613.00
2023-06-20T06:40:54.904Z,1623.00
2023-06-20T06:41:54.936Z,1636.00
2023-06-20T06:42:55.631Z,1633.00
2023-06-20T06:43:54.958Z,1591.00
2023-06-20T06:44:54.898Z,1629.00
2023-06-20T06:45:54.858Z,1577.00
2023-06-20T06:46:54.925Z,1562.00
2023-06-20T06:47:54.924Z,1483.00
2023-06-20T06:48:54.845Z,1516.00
2023-06-20T06:49:54.868Z,1542.00
2023-06-20T06:50:54.828Z,1516.00
2023-06-20T06:51:54.865Z,1476.00
2023-06-20T06:52:54.832Z,1449.00
2023-06-20T06:53:54.831Z,1412.00
2023-06-20T06:54:54.819Z,1467.00
2023-06-20T06:55:54.825Z,1581.00
2023-06-20T06:56:54.832Z,1564.00
2023-06-20T06:57:54.849Z,1612.00
2023-06-20T06:58:54.891Z,1576.00
2023-06-20T06:59:54.852Z,1486.00
2023-06-20T07:00:54.907Z,1436.00
2023-06-20T07:01:54.859Z,1532.00
2023-06-20T07:02:54.937Z,1559.00
2023-06-20T07:03:54.965Z,1587.00
2023-06-20T07:04:54.911Z,1556.00
2023-06-20T07:05:54.940Z,1635.00
2023-06-20T07:06:54.983Z,1581.00
2023-06-20T07:07:55.017Z,1616.00
2023-06-20T07:08:55.007Z,1562.00
2023-06-20T07:09:55.024Z,1516.00
2023-06-20T07:10:55.010Z,1494.00
2023-06-20T07:11:55.022Z,1419.00
2023-06-20T07:12:55.173Z,1451.00
2023-06-20T07:13:55.013Z,1504.00
2023-06-20T07:14:55.087Z,1524.00
2023-06-20T07:15:55.130Z,1431.00
2023-06-20T07:17:05.491Z,1415.00
2023-06-20T07:17:56.086Z,1417.00
2023-06-20T07:18:55.053Z,1397.00
2023-06-20T07:19:55.125Z,1355.00
2023-06-20T07:20:55.047Z,1418.00
2023-06-20T07:21:55.024Z,1264.00
2023-06-20T07:22:55.024Z,1230.00
2023-06-20T07:23:55.071Z,1178.00
2023-06-20T07:24:57.146Z,1170.00
2023-06-20T07:25:55.213Z,1138.00
2023-06-20T07:26:55.152Z,1154.00
2023-06-20T07:27:55.229Z,1120.00
2023-06-20T07:28:55.243Z,1022.00
2023-06-20T07:29:56.248Z,1081.00
2023-06-20T07:30:55.337Z,1117.00
2023-06-20T07:31:55.790Z,1174.00
2023-06-20T07:32:55.480Z,1307.00
2023-06-20T07:33:55.424Z,1336.00
2023-06-20T07:34:55.485Z,1356.00
2023-06-20T07:35:55.477Z,1396.00
2023-06-20T07:36:55.490Z,1396.00
2023-06-20T07:37:55.502Z,1400.00
2023-06-20T07:38:55.503Z,1498.00
2023-06-20T07:39:55.523Z,1551.00
2023-06-20T07:40:55.503Z,1520.00
2023-06-20T07:41:55.786Z,1518.00
2023-06-20T07:42:55.519Z,1525.00
2023-06-20T07:43:55.529Z,1525.00
2023-06-20T07:44:55.548Z,1517.00
2023-06-20T07:45:55.632Z,1571.00
2023-06-20T07:46:55.579Z,1628.00
2023-06-20T07:47:55.771Z,1617.00
2023-06-20T07:48:55.584Z,1667.00
2023-06-20T07:49:55.749Z,1616.00
2023-06-20T07:50:55.605Z,1656.00
2023-06-20T07:51:55.611Z,1537.00
2023-06-20T07:52:55.630Z,1424.00
2023-06-20T07:53:55.665Z,1409.00
2023-06-20T07:54:55.664Z,1403.00
2023-06-20T07:55:55.670Z,1349.00
2023-06-20T07:56:55.685Z,1374.00
2023-06-20T07:57:55.786Z,1369.00
2023-06-20T07:58:55.702Z,1387.00
2023-06-20T07:59:55.741Z,1393.00
2023-06-20T08:00:55.759Z,1358.00
2023-06-20T08:01:55.819Z,1196.00
2023-06-20T08:02:55.887Z,1113.00
2023-06-20T08:03:55.931Z,1019.00
2023-06-20T08:04:55.755Z,983.00
2023-06-20T08:05:55.748Z,1071.00
2023-06-20T08:06:55.770Z,1085.00
2023-06-20T08:07:55.785Z,1048.00
2023-06-20T08:08:55.731Z,1121.00
2023-06-20T08:09:55.731Z,1145.00
2023-06-20T08:10:55.726Z,1019.00
2023-06-20T08:11:55.733Z,982.00
2023-06-20T08:12:55.730Z,877.00
2023-06-20T08:13:55.767Z,773.00
2023-06-20T08:14:55.745Z,726.00
2023-06-20T08:15:55.779Z,645.00
2023-06-20T08:16:55.740Z,642.00
2023-06-20T08:17:55.721Z,683.00
2023-06-20T08:18:55.718Z,766.00
2023-06-20T08:19:55.754Z,769.00
2023-06-20T08:20:55.731Z,849.00
2023-06-20T08:21:55.748Z,894.00
2023-06-20T08:22:55.740Z,914.00
2023-06-20T08:23:55.797Z,922.00
2023-06-20T08:24:56.257Z,999.00
2023-06-20T08:25:55.763Z,1030.00
2023-06-20T08:26:55.769Z,1035.00
2023-06-20T08:28:06.255Z,930.00
2023-06-20T08:28:56.772Z,741.00
2023-06-20T08:29:55.775Z,603.00
2023-06-20T08:30:55.778Z,552.00
2023-06-20T08:31:55.708Z,495.00
2023-06-20T08:32:55.770Z,485.00
2023-06-20T08:33:55.711Z,505.00
2023-06-20T08:34:57.277Z,525.00
2023-06-20T08:35:55.691Z,529.00
2023-06-20T08:36:55.685Z,575.00
2023-06-20T08:37:55.680Z,591.00
2023-06-20T08:38:55.705Z,614.00
2023-06-20T08:39:55.745Z,679.00
2023-06-20T08:40:55.670Z,724.00
2023-06-20T08:41:55.668Z,651.00
2023-06-20T08:42:55.654Z,585.00
2023-06-20T08:43:55.626Z,566.00
2023-06-20T08:44:57.921Z,526.00
2023-06-20T08:45:55.660Z,500.00
2023-06-20T08:46:55.660Z,501.00
2023-06-20T08:47:55.610Z,515.00
2023-06-20T08:48:55.621Z,551.00
2023-06-20T08:49:55.769Z,560.00
2023-06-20T08:50:55.598Z,533.00
2023-06-20T08:51:55.586Z,532.00
2023-06-20T08:52:55.581Z,528.00
2023-06-20T08:53:55.569Z,506.00
2023-06-20T08:54:55.779Z,546.00
2023-06-20T08:55:55.560Z,552.00
2023-06-20T08:56:55.568Z,526.00
2023-06-20T08:57:55.599Z,475.00
2023-06-20T08:58:55.554Z,500.00
2023-06-20T08:59:55.764Z,566.00
2023-06-20T09:00:55.606Z,602.00
2023-06-20T09:01:55.875Z,563.00
2023-06-20T09:02:55.586Z,529.00
2023-06-20T09:03:55.529Z,562.00
2023-06-20T09:04:55.790Z,568.00
2023-06-20T09:05:55.482Z,573.00
2023-06-20T09:06:55.497Z,561.00
2023-06-20T09:07:55.493Z,524.00
2023-06-20T09:08:55.528Z,530.00
2023-06-20T09:09:55.766Z,501.00
2023-06-20T09:10:55.502Z,496.00
2023-06-20T09:11:55.492Z,521.00
2023-06-20T09:12:55.466Z,533.00
2023-06-20T09:13:55.458Z,541.00
2023-06-20T09:14:55.464Z,543.00
2023-06-20T09:15:55.781Z,492.00
2023-06-20T09:16:55.481Z,459.00
2023-06-20T09:17:55.459Z,466.00
2023-06-20T09:18:55.418Z,483.00
2023-06-20T09:19:57.271Z,500.00
2023-06-20T09:20:55.390Z,578.00
2023-06-20T09:22:08.447Z,578.00
2023-06-20T09:22:56.814Z,534.00
2023-06-20T09:23:55.436Z,564.00
2023-06-20T09:24:55.365Z,586.00
2023-06-20T09:25:55.373Z,587.00
2023-06-20T09:26:55.343Z,570.00
2023-06-20T09:27:55.774Z,665.00
2023-06-20T09:28:55.365Z,815.00
2023-06-20T09:29:55.841Z,842.00
2023-06-20T09:30:55.366Z,916.00
2023-06-20T09:31:55.344Z,1040.00
2023-06-20T09:32:55.449Z,1177.00
2023-06-20T09:33:55.352Z,1277.00
2023-06-20T09:34:55.801Z,1411.00
2023-06-20T09:35:55.313Z,1434.00
2023-06-20T09:36:55.286Z,1494.00
2023-06-20T09:37:55.300Z,1619.00
2023-06-20T09:38:55.280Z,1753.00
2023-06-20T09:39:55.277Z,1810.00
2023-06-20T09:40:55.253Z,1910.00
2023-06-20T09:41:55.251Z,1996.00
2023-06-20T09:42:55.250Z,2092.00
2023-06-20T09:43:55.262Z,2146.00
2023-06-20T09:44:55.266Z,2195.00
2023-06-20T09:45:55.269Z,2271.00
2023-06-20T09:46:55.226Z,2291.00
2023-06-20T09:47:55.323Z,2344.00
2023-06-20T09:48:55.238Z,2347.00
2023-06-20T09:49:55.215Z,2347.00
2023-06-20T09:50:55.195Z,2351.00
2023-06-20T09:51:55.178Z,2365.00
2023-06-20T09:52:55.190Z,2364.00
2023-06-20T09:53:55.173Z,2389.00
2023-06-20T09:54:55.335Z,2383.00
2023-06-20T09:55:55.160Z,2363.00
2023-06-20T09:56:55.160Z,2407.00
2023-06-20T09:57:55.173Z,2406.00
2023-06-20T09:58:55.192Z,2305.00
2023-06-20T09:59:55.180Z,2310.00
2023-06-20T10:00:55.165Z,2439.00
2023-06-20T10:01:56.956Z,2718.00
2023-06-20T10:02:55.214Z,2912.00
2023-06-20T10:03:55.200Z,3080.00
2023-06-20T10:04:55.217Z,3252.00
2023-06-20T10:05:55.191Z,3317.00
2023-06-20T10:06:55.196Z,3363.00
2023-06-20T10:07:55.802Z,3416.00
2023-06-20T10:08:55.195Z,3436.00
2023-06-20T10:09:55.188Z,3433.00
2023-06-20T10:10:55.199Z,3478.00
2023-06-20T10:11:55.215Z,3479.00
2023-06-20T10:12:55.185Z,3460.00
2023-06-20T10:13:55.211Z,3304.00
2023-06-20T10:14:55.236Z,3184.00
2023-06-20T10:15:55.179Z,3132.00
2023-06-20T10:16:55.196Z,3008.00
2023-06-20T10:17:55.334Z,2998.00
2023-06-20T10:18:55.302Z,2980.00
2023-06-20T10:19:55.200Z,2973.00
2023-06-20T10:20:55.184Z,3110.00
2023-06-20T10:21:55.258Z,2898.00
2023-06-20T10:22:55.184Z,2801.00
2023-06-20T10:23:55.266Z,2763.00
2023-06-20T10:24:55.246Z,2663.00
2023-06-20T10:25:55.194Z,2690.00
2023-06-20T10:26:55.233Z,2789.00
2023-06-20T10:27:55.209Z,2850.00
2023-06-20T10:28:55.228Z,2868.00
2023-06-20T10:29:55.235Z,2861.00
2023-06-20T10:30:55.246Z,2852.00
2023-06-20T10:31:55.402Z,2826.00
2023-06-20T10:32:55.263Z,2771.00
2023-06-20T10:33:55.262Z,2667.00
2023-06-20T10:34:55.248Z,2663.00
2023-06-20T10:35:55.276Z,2621.00
2023-06-20T10:36:55.293Z,2385.00
2023-06-20T10:37:55.350Z,2121.00
2023-06-20T10:38:55.337Z,1981.00
2023-06-20T10:39:55.334Z,1874.00
2023-06-20T10:40:55.367Z,1944.00
2023-06-20T10:41:55.388Z,2192.00
2023-06-20T10:42:55.411Z,2166.00
2023-06-20T10:43:55.417Z,2121.00
2023-06-20T10:44:55.829Z,2194.00
2023-06-20T10:45:55.504Z,2197.00
2023-06-20T10:46:55.453Z,2299.00
2023-06-20T10:47:55.544Z,2359.00
2023-06-20T10:48:55.492Z,2360.00
2023-06-20T10:49:55.537Z,2379.00
2023-06-20T10:50:55.539Z,2396.00
2023-06-20T10:51:55.582Z,2425.00
2023-06-20T10:52:55.621Z,2381.00
2023-06-20T10:53:55.658Z,2371.00
2023-06-20T10:54:55.687Z,2361.00
2023-06-20T10:55:55.691Z,2384.00
2023-06-20T10:56:55.701Z,2232.00
2023-06-20T10:57:55.720Z,2222.00
2023-06-20T10:58:55.766Z,2264.00
2023-06-20T10:59:55.809Z,2333.00
2023-06-20T11:00:55.835Z,2300.00
2023-06-20T11:01:55.942Z,2156.00
2023-06-20T11:02:56.105Z,2245.00
2023-06-20T11:03:55.931Z,2233.00
2023-06-20T11:04:56.345Z,2226.00
2023-06-20T11:05:55.978Z,2242.00
2023-06-20T11:06:55.991Z,2142.00
2023-06-20T11:07:56.024Z,2191.00
2023-06-20T11:08:56.122Z,2245.00
2023-06-20T11:09:56.346Z,2226.00
2023-06-20T11:10:56.321Z,2042.00
2023-06-20T11:11:56.175Z,2036.00
2023-06-20T11:12:56.160Z,2110.00
2023-06-20T11:13:56.178Z,2146.00
2023-06-20T11:14:56.371Z,2165.00
2023-06-20T11:15:56.257Z,1980.00
2023-06-20T11:16:56.288Z,1977.00
2023-06-20T11:17:56.522Z,1923.00
2023-06-20T11:18:56.639Z,1900.00
2023-06-20T11:19:56.472Z,1847.00
2023-06-20T11:20:56.379Z,1865.00
2023-06-20T11:21:56.417Z,1833.00
2023-06-20T11:22:56.422Z,1840.00
2023-06-20T11:23:56.461Z,1903.00
2023-06-20T11:24:56.548Z,1981.00
2023-06-20T11:25:59.050Z,1967.00
2023-06-20T11:26:56.507Z,1886.00
2023-06-20T11:27:56.527Z,1869.00
2023-06-20T11:29:09.869Z,1952.00
2023-06-20T11:29:57.473Z,1935.00
2023-06-20T11:30:56.539Z,1973.00
2023-06-20T11:31:56.521Z,2011.00
2023-06-20T11:32:56.495Z,2066.00
2023-06-20T11:33:56.461Z,2169.00
2023-06-20T11:34:56.494Z,2199.00
2023-06-20T11:35:56.466Z,2194.00
2023-06-20T11:36:56.458Z,2170.00
2023-06-20T11:37:56.532Z,2106.00
2023-06-20T11:38:56.479Z,2101.00
2023-06-20T11:39:56.457Z,2127.00
2023-06-20T11:40:56.473Z,2150.00
2023-06-20T11:41:57.374Z,2125.00
2023-06-20T11:42:56.420Z,2145.00
2023-06-20T11:43:56.400Z,2166.00
2023-06-20T11:44:56.412Z,2135.00
2023-06-20T11:45:57.370Z,2090.00
2023-06-20T11:46:56.542Z,2140.00
2023-06-20T11:47:56.543Z,2118.00
2023-06-20T11:48:56.568Z,2113.00
2023-06-20T11:49:56.577Z,2059.00
2023-06-20T11:50:56.640Z,2032.00
2023-06-20T11:51:56.644Z,2049.00
2023-06-20T11:52:56.689Z,2032.00
2023-06-20T11:53:56.698Z,2053.00
2023-06-20T11:54:56.770Z,2030.00
2023-06-20T11:56:00.276Z,2001.00
2023-06-20T11:56:56.808Z,1790.00
2023-06-20T11:57:56.782Z,1827.00
2023-06-20T11:58:56.792Z,1862.00
2023-06-20T11:59:56.763Z,1832.00
2023-06-20T12:00:56.726Z,1756.00
2023-06-20T12:01:56.781Z,1831.00
2023-06-20T12:02:56.782Z,1971.00
2023-06-20T12:03:56.778Z,1888.00
2023-06-20T12:04:56.763Z,1699.00
2023-06-20T12:05:56.738Z,1556.00
2023-06-20T12:06:56.724Z,1425.00
2023-06-20T12:07:56.702Z,1479.00
2023-06-20T12:08:56.741Z,1816.00